sensor_id;sensor_type;location;lat;lon;timestamp;P1;durP1;ratioP1;P2;durP2;ratioP2
24891;SDS011;12954;50.688;10.908;2023-04-09T00:00:47;40.97;;;30.15;;
24891;SDS011;12954;50.688;10.908;2023-04-09T00:03:15;39.13;;;28.00;;
24891;SDS011;12954;50.688;10.908;2023-04-09T00:05:44;43.95;;;31.02;;
24891;SDS011;12954;50.688;10.908;2023-04-09T00:08:12;44.53;;;30.55;;
24891;SDS011;12954;50.688;10.908;2023-04-09T00:10:40;40.70;;;29.33;;
24891;SDS011;12954;50.688;10.908;2023-04-09T00:13:09;41.13;;;30.02;;
24891;SDS011;12954;50.688;10.908;2023-04-09T00:15:37;38.67;;;28.88;;
24891;SDS011;12954;50.688;10.908;2023-04-09T00:18:07;41.20;;;30.75;;
24891;SDS011;12954;50.688;10.908;2023-04-09T00:20:36;40.60;;;30.40;;
24891;SDS011;12954;50.688;10.908;2023-04-09T00:23:04;40.42;;;29.92;;
24891;SDS011;12954;50.688;10.908;2023-04-09T00:25:33;37.00;;;29.25;;
24891;SDS011;12954;50.688;10.908;2023-04-09T00:28:01;36.70;;;27.20;;
24891;SDS011;12954;50.688;10.908;2023-04-09T00:30:30;40.42;;;28.77;;
24891;SDS011;12954;50.688;10.908;2023-04-09T00:32:58;41.03;;;29.70;;
24891;SDS011;12954;50.688;10.908;2023-04-09T00:35:28;39.92;;;28.85;;
24891;SDS011;12954;50.688;10.908;2023-04-09T00:37:57;38.85;;;30.13;;
24891;SDS011;12954;50.688;10.908;2023-04-09T00:40:25;40.50;;;29.52;;
24891;SDS011;12954;50.688;10.908;2023-04-09T00:42:54;38.08;;;29.50;;
24891;SDS011;12954;50.688;10.908;2023-04-09T00:45:23;40.63;;;31.52;;
24891;SDS011;12954;50.688;10.908;2023-04-09T00:47:51;42.95;;;32.10;;
24891;SDS011;12954;50.688;10.908;2023-04-09T00:50:20;42.25;;;30.38;;
24891;SDS011;12954;50.688;10.908;2023-04-09T00:52:50;42.13;;;30.27;;
24891;SDS011;12954;50.688;10.908;2023-04-09T00:55:18;45.58;;;31.05;;
24891;SDS011;12954;50.688;10.908;2023-04-09T00:57:48;41.72;;;31.23;;
24891;SDS011;12954;50.688;10.908;2023-04-09T01:00:16;44.45;;;32.10;;
24891;SDS011;12954;50.688;10.908;2023-04-09T01:02:45;43.00;;;32.20;;
24891;SDS011;12954;50.688;10.908;2023-04-09T01:05:14;41.03;;;30.92;;
24891;SDS011;12954;50.688;10.908;2023-04-09T01:07:47;42.03;;;31.25;;
24891;SDS011;12954;50.688;10.908;2023-04-09T01:10:29;43.28;;;31.95;;
24891;SDS011;12954;50.688;10.908;2023-04-09T01:13:05;40.20;;;30.95;;
24891;SDS011;12954;50.688;10.908;2023-04-09T01:15:40;39.25;;;30.20;;
24891;SDS011;12954;50.688;10.908;2023-04-09T01:18:14;40.03;;;30.60;;
24891;SDS011;12954;50.688;10.908;2023-04-09T01:20:51;40.35;;;30.95;;
24891;SDS011;12954;50.688;10.908;2023-04-09T01:23:31;40.70;;;31.00;;
24891;SDS011;12954;50.688;10.908;2023-04-09T01:26:13;38.95;;;30.63;;
24891;SDS011;12954;50.688;10.908;2023-04-09T01:28:49;38.72;;;31.30;;
24891;SDS011;12954;50.688;10.908;2023-04-09T01:31:23;40.13;;;32.08;;
24891;SDS011;12954;50.688;10.908;2023-04-09T01:33:56;37.65;;;30.35;;
24891;SDS011;12954;50.688;10.908;2023-04-09T01:36:26;42.95;;;31.63;;
24891;SDS011;12954;50.688;10.908;2023-04-09T01:38:57;40.95;;;32.47;;
24891;SDS011;12954;50.688;10.908;2023-04-09T01:41:28;38.30;;;30.23;;
24891;SDS011;12954;50.688;10.908;2023-04-09T01:44:01;42.40;;;31.98;;
24891;SDS011;12954;50.688;10.908;2023-04-09T01:46:30;39.90;;;30.45;;
24891;SDS011;12954;50.688;10.908;2023-04-09T01:49:02;42.78;;;31.90;;
24891;SDS011;12954;50.688;10.908;2023-04-09T01:51:31;41.63;;;32.00;;
24891;SDS011;12954;50.688;10.908;2023-04-09T01:54:00;42.90;;;31.58;;
24891;SDS011;12954;50.688;10.908;2023-04-09T01:56:38;39.35;;;30.65;;
24891;SDS011;12954;50.688;10.908;2023-04-09T01:59:08;42.08;;;31.33;;
24891;SDS011;12954;50.688;10.908;2023-04-09T02:01:37;38.72;;;31.38;;
24891;SDS011;12954;50.688;10.908;2023-04-09T02:04:14;39.80;;;30.73;;
24891;SDS011;12954;50.688;10.908;2023-04-09T02:06:47;38.97;;;29.83;;
24891;SDS011;12954;50.688;10.908;2023-04-09T02:09:22;40.17;;;30.95;;
24891;SDS011;12954;50.688;10.908;2023-04-09T02:11:52;41.30;;;31.98;;
24891;SDS011;12954;50.688;10.908;2023-04-09T02:14:25;38.55;;;29.95;;
24891;SDS011;12954;50.688;10.908;2023-04-09T02:16:55;37.97;;;29.92;;
24891;SDS011;12954;50.688;10.908;2023-04-09T02:19:24;39.97;;;30.75;;
24891;SDS011;12954;50.688;10.908;2023-04-09T02:21:52;38.83;;;30.38;;
24891;SDS011;12954;50.688;10.908;2023-04-09T02:24:21;41.15;;;30.70;;
24891;SDS011;12954;50.688;10.908;2023-04-09T02:26:49;39.55;;;30.85;;
24891;SDS011;12954;50.688;10.908;2023-04-09T02:29:17;38.28;;;30.20;;
24891;SDS011;12954;50.688;10.908;2023-04-09T02:31:47;37.38;;;29.77;;
24891;SDS011;12954;50.688;10.908;2023-04-09T02:34:18;38.97;;;30.17;;
24891;SDS011;12954;50.688;10.908;2023-04-09T02:36:47;41.13;;;31.80;;
24891;SDS011;12954;50.688;10.908;2023-04-09T02:39:15;38.78;;;31.55;;
24891;SDS011;12954;50.688;10.908;2023-04-09T02:41:44;36.65;;;29.70;;
24891;SDS011;12954;50.688;10.908;2023-04-09T02:44:12;39.70;;;32.17;;
24891;SDS011;12954;50.688;10.908;2023-04-09T02:46:41;40.20;;;32.22;;
24891;SDS011;12954;50.688;10.908;2023-04-09T02:49:12;39.67;;;32.13;;
24891;SDS011;12954;50.688;10.908;2023-04-09T02:51:40;41.38;;;31.42;;
24891;SDS011;12954;50.688;10.908;2023-04-09T02:54:09;42.63;;;31.85;;
24891;SDS011;12954;50.688;10.908;2023-04-09T02:56:37;41.40;;;32.88;;
24891;SDS011;12954;50.688;10.908;2023-04-09T02:59:05;42.40;;;32.33;;
24891;SDS011;12954;50.688;10.908;2023-04-09T03:01:34;46.58;;;36.63;;
24891;SDS011;12954;50.688;10.908;2023-04-09T03:04:03;41.42;;;32.70;;
24891;SDS011;12954;50.688;10.908;2023-04-09T03:06:33;43.55;;;33.88;;
24891;SDS011;12954;50.688;10.908;2023-04-09T03:09:02;41.15;;;31.70;;
24891;SDS011;12954;50.688;10.908;2023-04-09T03:11:30;42.45;;;32.47;;
24891;SDS011;12954;50.688;10.908;2023-04-09T03:13:59;42.65;;;32.35;;
24891;SDS011;12954;50.688;10.908;2023-04-09T03:16:27;42.92;;;32.42;;
24891;SDS011;12954;50.688;10.908;2023-04-09T03:18:55;43.40;;;32.40;;
24891;SDS011;12954;50.688;10.908;2023-04-09T03:21:23;39.00;;;32.28;;
24891;SDS011;12954;50.688;10.908;2023-04-09T03:23:54;43.63;;;33.20;;
24891;SDS011;12954;50.688;10.908;2023-04-09T03:26:22;37.35;;;31.65;;
24891;SDS011;12954;50.688;10.908;2023-04-09T03:28:51;39.55;;;31.13;;
24891;SDS011;12954;50.688;10.908;2023-04-09T03:31:20;40.33;;;30.90;;
24891;SDS011;12954;50.688;10.908;2023-04-09T03:33:49;48.42;;;36.33;;
24891;SDS011;12954;50.688;10.908;2023-04-09T03:36:17;40.47;;;32.60;;
24891;SDS011;12954;50.688;10.908;2023-04-09T03:38:45;39.28;;;30.63;;
24891;SDS011;12954;50.688;10.908;2023-04-09T03:41:16;37.97;;;29.05;;
24891;SDS011;12954;50.688;10.908;2023-04-09T03:43:44;35.95;;;29.33;;
24891;SDS011;12954;50.688;10.908;2023-04-09T03:46:13;38.40;;;28.67;;
24891;SDS011;12954;50.688;10.908;2023-04-09T03:48:42;37.03;;;28.48;;
24891;SDS011;12954;50.688;10.908;2023-04-09T03:51:11;36.78;;;29.63;;
24891;SDS011;12954;50.688;10.908;2023-04-09T03:53:40;36.42;;;28.90;;
24891;SDS011;12954;50.688;10.908;2023-04-09T03:56:08;38.28;;;29.45;;
24891;SDS011;12954;50.688;10.908;2023-04-09T03:58:38;34.88;;;27.80;;
24891;SDS011;12954;50.688;10.908;2023-04-09T04:01:07;36.03;;;28.05;;
24891;SDS011;12954;50.688;10.908;2023-04-09T04:03:36;35.63;;;28.58;;
24891;SDS011;12954;50.688;10.908;2023-04-09T04:06:05;36.25;;;27.95;;
24891;SDS011;12954;50.688;10.908;2023-04-09T04:08:33;39.10;;;29.77;;
24891;SDS011;12954;50.688;10.908;2023-04-09T04:11:02;34.00;;;28.40;;
24891;SDS011;12954;50.688;10.908;2023-04-09T04:13:31;35.28;;;27.60;;
24891;SDS011;12954;50.688;10.908;2023-04-09T04:16:01;37.03;;;28.48;;
24891;SDS011;12954;50.688;10.908;2023-04-09T04:18:33;37.33;;;29.33;;
24891;SDS011;12954;50.688;10.908;2023-04-09T04:21:01;35.55;;;28.25;;
24891;SDS011;12954;50.688;10.908;2023-04-09T04:23:30;34.70;;;27.48;;
24891;SDS011;12954;50.688;10.908;2023-04-09T04:25:58;33.92;;;28.15;;
24891;SDS011;12954;50.688;10.908;2023-04-09T04:28:26;36.28;;;28.60;;
24891;SDS011;12954;50.688;10.908;2023-04-09T04:30:55;34.55;;;27.98;;
24891;SDS011;12954;50.688;10.908;2023-04-09T04:33:25;33.17;;;27.20;;
24891;SDS011;12954;50.688;10.908;2023-04-09T04:35:53;32.67;;;26.92;;
24891;SDS011;12954;50.688;10.908;2023-04-09T04:38:32;36.70;;;29.30;;
24891;SDS011;12954;50.688;10.908;2023-04-09T04:41:00;35.60;;;28.02;;
24891;SDS011;12954;50.688;10.908;2023-04-09T04:43:29;38.20;;;29.98;;
24891;SDS011;12954;50.688;10.908;2023-04-09T04:45:57;38.67;;;29.45;;
24891;SDS011;12954;50.688;10.908;2023-04-09T04:48:28;38.50;;;29.52;;
24891;SDS011;12954;50.688;10.908;2023-04-09T04:50:57;36.63;;;28.70;;
24891;SDS011;12954;50.688;10.908;2023-04-09T04:53:27;38.38;;;30.67;;
24891;SDS011;12954;50.688;10.908;2023-04-09T04:55:56;38.00;;;30.10;;
24891;SDS011;12954;50.688;10.908;2023-04-09T04:58:24;38.60;;;29.20;;
24891;SDS011;12954;50.688;10.908;2023-04-09T05:00:52;40.45;;;29.65;;
24891;SDS011;12954;50.688;10.908;2023-04-09T05:03:21;39.22;;;28.77;;
24891;SDS011;12954;50.688;10.908;2023-04-09T05:05:54;44.05;;;30.38;;
24891;SDS011;12954;50.688;10.908;2023-04-09T05:08:22;40.03;;;30.50;;
24891;SDS011;12954;50.688;10.908;2023-04-09T05:10:51;38.63;;;29.33;;
24891;SDS011;12954;50.688;10.908;2023-04-09T05:13:21;40.63;;;29.10;;
24891;SDS011;12954;50.688;10.908;2023-04-09T05:15:50;36.08;;;29.88;;
24891;SDS011;12954;50.688;10.908;2023-04-09T05:18:18;36.30;;;28.50;;
24891;SDS011;12954;50.688;10.908;2023-04-09T05:20:47;32.50;;;27.85;;
24891;SDS011;12954;50.688;10.908;2023-04-09T05:23:17;34.50;;;28.15;;
24891;SDS011;12954;50.688;10.908;2023-04-09T05:25:47;34.72;;;27.77;;
24891;SDS011;12954;50.688;10.908;2023-04-09T05:28:16;33.90;;;28.20;;
24891;SDS011;12954;50.688;10.908;2023-04-09T05:30:45;34.38;;;28.35;;
24891;SDS011;12954;50.688;10.908;2023-04-09T05:33:13;33.88;;;28.58;;
24891;SDS011;12954;50.688;10.908;2023-04-09T05:35:42;37.00;;;29.35;;
24891;SDS011;12954;50.688;10.908;2023-04-09T05:38:10;32.78;;;27.63;;
24891;SDS011;12954;50.688;10.908;2023-04-09T05:40:40;34.42;;;28.45;;
24891;SDS011;12954;50.688;10.908;2023-04-09T05:43:10;33.20;;;28.25;;
24891;SDS011;12954;50.688;10.908;2023-04-09T05:45:39;33.60;;;28.25;;
24891;SDS011;12954;50.688;10.908;2023-04-09T05:48:07;34.97;;;28.13;;
24891;SDS011;12954;50.688;10.908;2023-04-09T05:50:35;33.78;;;28.83;;
24891;SDS011;12954;50.688;10.908;2023-04-09T05:55:49;35.47;;;28.58;;
24891;SDS011;12954;50.688;10.908;2023-04-09T05:58:17;31.80;;;28.08;;
24891;SDS011;12954;50.688;10.908;2023-04-09T06:00:46;32.78;;;28.42;;
24891;SDS011;12954;50.688;10.908;2023-04-09T06:03:17;33.53;;;27.60;;
24891;SDS011;12954;50.688;10.908;2023-04-09T06:05:45;35.55;;;29.30;;
24891;SDS011;12954;50.688;10.908;2023-04-09T06:08:14;32.00;;;27.75;;
24891;SDS011;12954;50.688;10.908;2023-04-09T06:10:42;32.78;;;27.70;;
24891;SDS011;12954;50.688;10.908;2023-04-09T06:13:12;31.88;;;26.98;;
24891;SDS011;12954;50.688;10.908;2023-04-09T06:15:41;31.45;;;26.90;;
24891;SDS011;12954;50.688;10.908;2023-04-09T06:18:09;33.83;;;28.00;;
24891;SDS011;12954;50.688;10.908;2023-04-09T06:20:37;32.55;;;27.75;;
24891;SDS011;12954;50.688;10.908;2023-04-09T06:23:06;33.72;;;29.23;;
24891;SDS011;12954;50.688;10.908;2023-04-09T06:25:35;32.03;;;28.15;;
24891;SDS011;12954;50.688;10.908;2023-04-09T06:28:03;30.98;;;27.45;;
24891;SDS011;12954;50.688;10.908;2023-04-09T06:30:33;34.78;;;27.95;;
24891;SDS011;12954;50.688;10.908;2023-04-09T06:33:02;34.05;;;28.73;;
24891;SDS011;12954;50.688;10.908;2023-04-09T06:35:31;33.95;;;29.38;;
24891;SDS011;12954;50.688;10.908;2023-04-09T06:37:59;30.85;;;26.73;;
24891;SDS011;12954;50.688;10.908;2023-04-09T06:40:28;33.67;;;28.88;;
24891;SDS011;12954;50.688;10.908;2023-04-09T06:42:57;35.17;;;27.83;;
24891;SDS011;12954;50.688;10.908;2023-04-09T06:45:26;32.60;;;26.73;;
24891;SDS011;12954;50.688;10.908;2023-04-09T06:47:56;29.45;;;26.25;;
24891;SDS011;12954;50.688;10.908;2023-04-09T06:50:24;30.88;;;26.02;;
24891;SDS011;12954;50.688;10.908;2023-04-09T06:52:53;30.23;;;25.05;;
24891;SDS011;12954;50.688;10.908;2023-04-09T06:55:21;29.85;;;25.55;;
24891;SDS011;12954;50.688;10.908;2023-04-09T06:57:50;29.70;;;25.55;;
24891;SDS011;12954;50.688;10.908;2023-04-09T07:00:18;27.05;;;24.08;;
24891;SDS011;12954;50.688;10.908;2023-04-09T07:02:48;30.85;;;25.42;;
24891;SDS011;12954;50.688;10.908;2023-04-09T07:05:19;29.98;;;26.40;;
24891;SDS011;12954;50.688;10.908;2023-04-09T07:07:48;29.30;;;24.80;;
24891;SDS011;12954;50.688;10.908;2023-04-09T07:10:16;30.20;;;25.15;;
24891;SDS011;12954;50.688;10.908;2023-04-09T07:12:45;28.98;;;25.20;;
24891;SDS011;12954;50.688;10.908;2023-04-09T07:15:13;28.70;;;24.65;;
24891;SDS011;12954;50.688;10.908;2023-04-09T07:17:42;27.67;;;24.38;;
24891;SDS011;12954;50.688;10.908;2023-04-09T07:20:10;27.77;;;24.00;;
24891;SDS011;12954;50.688;10.908;2023-04-09T07:22:40;27.23;;;22.80;;
24891;SDS011;12954;50.688;10.908;2023-04-09T07:25:09;26.80;;;21.70;;
24891;SDS011;12954;50.688;10.908;2023-04-09T07:27:37;22.90;;;20.25;;
24891;SDS011;12954;50.688;10.908;2023-04-09T07:30:06;24.77;;;21.55;;
24891;SDS011;12954;50.688;10.908;2023-04-09T07:32:36;26.08;;;22.38;;
24891;SDS011;12954;50.688;10.908;2023-04-09T07:35:05;27.42;;;21.58;;
24891;SDS011;12954;50.688;10.908;2023-04-09T07:37:35;23.02;;;20.15;;
24891;SDS011;12954;50.688;10.908;2023-04-09T07:40:05;28.00;;;20.75;;
24891;SDS011;12954;50.688;10.908;2023-04-09T07:42:35;22.52;;;19.85;;
24891;SDS011;12954;50.688;10.908;2023-04-09T07:45:05;23.00;;;19.65;;
24891;SDS011;12954;50.688;10.908;2023-04-09T07:47:34;21.13;;;18.83;;
24891;SDS011;12954;50.688;10.908;2023-04-09T07:50:03;20.88;;;18.27;;
24891;SDS011;12954;50.688;10.908;2023-04-09T07:52:32;21.40;;;18.30;;
24891;SDS011;12954;50.688;10.908;2023-04-09T07:55:00;21.95;;;19.40;;
24891;SDS011;12954;50.688;10.908;2023-04-09T07:57:31;22.75;;;19.83;;
24891;SDS011;12954;50.688;10.908;2023-04-09T07:59:59;25.42;;;21.70;;
24891;SDS011;12954;50.688;10.908;2023-04-09T08:02:29;25.75;;;22.92;;
24891;SDS011;12954;50.688;10.908;2023-04-09T08:04:57;24.95;;;21.55;;
24891;SDS011;12954;50.688;10.908;2023-04-09T08:07:26;27.30;;;22.20;;
24891;SDS011;12954;50.688;10.908;2023-04-09T08:09:54;24.08;;;21.58;;
24891;SDS011;12954;50.688;10.908;2023-04-09T08:12:23;24.63;;;21.95;;
24891;SDS011;12954;50.688;10.908;2023-04-09T08:14:53;26.02;;;22.45;;
24891;SDS011;12954;50.688;10.908;2023-04-09T08:17:22;25.83;;;21.67;;
24891;SDS011;12954;50.688;10.908;2023-04-09T08:19:50;22.80;;;20.13;;
24891;SDS011;12954;50.688;10.908;2023-04-09T08:22:18;22.95;;;20.15;;
24891;SDS011;12954;50.688;10.908;2023-04-09T08:24:49;22.60;;;20.13;;
24891;SDS011;12954;50.688;10.908;2023-04-09T08:27:18;22.95;;;20.05;;
24891;SDS011;12954;50.688;10.908;2023-04-09T08:29:47;21.52;;;19.27;;
24891;SDS011;12954;50.688;10.908;2023-04-09T08:32:17;23.23;;;20.23;;
24891;SDS011;12954;50.688;10.908;2023-04-09T08:34:45;25.20;;;20.58;;
24891;SDS011;12954;50.688;10.908;2023-04-09T08:37:13;25.05;;;21.08;;
24891;SDS011;12954;50.688;10.908;2023-04-09T08:39:42;22.60;;;20.02;;
24891;SDS011;12954;50.688;10.908;2023-04-09T08:42:10;23.95;;;18.80;;
24891;SDS011;12954;50.688;10.908;2023-04-09T08:44:41;20.58;;;16.75;;
24891;SDS011;12954;50.688;10.908;2023-04-09T08:47:10;22.10;;;18.90;;
24891;SDS011;12954;50.688;10.908;2023-04-09T08:49:40;21.30;;;18.50;;
24891;SDS011;12954;50.688;10.908;2023-04-09T08:52:09;21.23;;;18.40;;
24891;SDS011;12954;50.688;10.908;2023-04-09T08:54:37;23.42;;;19.45;;
24891;SDS011;12954;50.688;10.908;2023-04-09T08:57:06;21.33;;;18.73;;
24891;SDS011;12954;50.688;10.908;2023-04-09T08:59:34;19.80;;;17.70;;
24891;SDS011;12954;50.688;10.908;2023-04-09T09:02:06;22.45;;;18.42;;
24891;SDS011;12954;50.688;10.908;2023-04-09T09:04:44;21.95;;;19.65;;
24891;SDS011;12954;50.688;10.908;2023-04-09T09:07:13;19.75;;;16.70;;
24891;SDS011;12954;50.688;10.908;2023-04-09T09:09:55;17.98;;;16.00;;
24891;SDS011;12954;50.688;10.908;2023-04-09T09:12:29;15.18;;;13.55;;
24891;SDS011;12954;50.688;10.908;2023-04-09T09:14:59;16.15;;;14.18;;
24891;SDS011;12954;50.688;10.908;2023-04-09T09:17:28;18.40;;;14.80;;
24891;SDS011;12954;50.688;10.908;2023-04-09T09:19:58;16.98;;;15.15;;
24891;SDS011;12954;50.688;10.908;2023-04-09T09:22:47;15.48;;;13.88;;
24891;SDS011;12954;50.688;10.908;2023-04-09T09:25:20;17.98;;;14.90;;
24891;SDS011;12954;50.688;10.908;2023-04-09T09:27:52;17.40;;;15.45;;
24891;SDS011;12954;50.688;10.908;2023-04-09T09:30:21;18.15;;;16.25;;
24891;SDS011;12954;50.688;10.908;2023-04-09T09:32:53;17.38;;;15.50;;
24891;SDS011;12954;50.688;10.908;2023-04-09T09:35:24;17.10;;;15.27;;
24891;SDS011;12954;50.688;10.908;2023-04-09T09:37:59;16.45;;;13.95;;
24891;SDS011;12954;50.688;10.908;2023-04-09T09:40:29;16.02;;;14.27;;
24891;SDS011;12954;50.688;10.908;2023-04-09T09:42:58;13.90;;;11.82;;
24891;SDS011;12954;50.688;10.908;2023-04-09T09:45:26;15.90;;;13.82;;
24891;SDS011;12954;50.688;10.908;2023-04-09T09:47:56;15.68;;;13.02;;
24891;SDS011;12954;50.688;10.908;2023-04-09T09:50:26;13.75;;;11.98;;
24891;SDS011;12954;50.688;10.908;2023-04-09T09:53:00;14.07;;;12.43;;
24891;SDS011;12954;50.688;10.908;2023-04-09T09:55:32;14.15;;;11.60;;
24891;SDS011;12954;50.688;10.908;2023-04-09T09:58:07;14.18;;;10.80;;
24891;SDS011;12954;50.688;10.908;2023-04-09T10:00:39;14.18;;;12.48;;
24891;SDS011;12954;50.688;10.908;2023-04-09T10:03:10;13.73;;;12.23;;
24891;SDS011;12954;50.688;10.908;2023-04-09T10:05:42;13.70;;;12.30;;
24891;SDS011;12954;50.688;10.908;2023-04-09T10:08:11;14.15;;;12.65;;
24891;SDS011;12954;50.688;10.908;2023-04-09T10:10:40;14.98;;;13.45;;
24891;SDS011;12954;50.688;10.908;2023-04-09T10:13:11;14.48;;;12.98;;
24891;SDS011;12954;50.688;10.908;2023-04-09T10:15:43;15.07;;;11.77;;
24891;SDS011;12954;50.688;10.908;2023-04-09T10:18:13;13.35;;;11.68;;
24891;SDS011;12954;50.688;10.908;2023-04-09T10:20:48;15.10;;;12.63;;
24891;SDS011;12954;50.688;10.908;2023-04-09T10:23:26;14.35;;;12.50;;
24891;SDS011;12954;50.688;10.908;2023-04-09T10:26:00;15.35;;;13.75;;
24891;SDS011;12954;50.688;10.908;2023-04-09T10:28:29;15.75;;;14.13;;
24891;SDS011;12954;50.688;10.908;2023-04-09T10:30:58;15.70;;;12.95;;
24891;SDS011;12954;50.688;10.908;2023-04-09T10:33:28;13.77;;;12.05;;
24891;SDS011;12954;50.688;10.908;2023-04-09T10:35:59;15.25;;;12.93;;
24891;SDS011;12954;50.688;10.908;2023-04-09T10:38:34;15.23;;;13.23;;
24891;SDS011;12954;50.688;10.908;2023-04-09T10:41:12;13.80;;;12.40;;
24891;SDS011;12954;50.688;10.908;2023-04-09T10:43:42;13.35;;;12.05;;
24891;SDS011;12954;50.688;10.908;2023-04-09T10:46:26;14.75;;;12.73;;
24891;SDS011;12954;50.688;10.908;2023-04-09T10:49:13;14.60;;;13.10;;
24891;SDS011;12954;50.688;10.908;2023-04-09T10:51:51;14.32;;;12.82;;
24891;SDS011;12954;50.688;10.908;2023-04-09T10:54:43;12.20;;;10.93;;
24891;SDS011;12954;50.688;10.908;2023-04-09T10:57:17;13.38;;;11.98;;
24891;SDS011;12954;50.688;10.908;2023-04-09T10:59:47;12.45;;;11.18;;
24891;SDS011;12954;50.688;10.908;2023-04-09T11:02:38;12.32;;;10.93;;
24891;SDS011;12954;50.688;10.908;2023-04-09T11:05:34;12.43;;;11.18;;
24891;SDS011;12954;50.688;10.908;2023-04-09T11:08:07;11.55;;;10.35;;
24891;SDS011;12954;50.688;10.908;2023-04-09T11:10:37;11.57;;;10.38;;
24891;SDS011;12954;50.688;10.908;2023-04-09T11:13:09;12.13;;;10.70;;
24891;SDS011;12954;50.688;10.908;2023-04-09T11:15:38;12.30;;;11.05;;
24891;SDS011;12954;50.688;10.908;2023-04-09T11:18:07;11.35;;;10.23;;
24891;SDS011;12954;50.688;10.908;2023-04-09T11:20:37;13.07;;;11.77;;
24891;SDS011;12954;50.688;10.908;2023-04-09T11:23:08;15.20;;;13.10;;
24891;SDS011;12954;50.688;10.908;2023-04-09T11:25:38;14.10;;;12.60;;
24891;SDS011;12954;50.688;10.908;2023-04-09T11:28:07;13.15;;;11.75;;
24891;SDS011;12954;50.688;10.908;2023-04-09T11:30:35;11.07;;;9.98;;
24891;SDS011;12954;50.688;10.908;2023-04-09T11:33:05;10.95;;;9.85;;
24891;SDS011;12954;50.688;10.908;2023-04-09T11:35:34;10.15;;;9.15;;
24891;SDS011;12954;50.688;10.908;2023-04-09T11:38:08;9.57;;;8.57;;
24891;SDS011;12954;50.688;10.908;2023-04-09T11:40:38;11.82;;;9.20;;
24891;SDS011;12954;50.688;10.908;2023-04-09T11:43:14;10.15;;;9.07;;
24891;SDS011;12954;50.688;10.908;2023-04-09T11:45:43;9.88;;;8.88;;
24891;SDS011;12954;50.688;10.908;2023-04-09T11:48:14;11.90;;;10.13;;
24891;SDS011;12954;50.688;10.908;2023-04-09T11:50:44;10.45;;;9.43;;
24891;SDS011;12954;50.688;10.908;2023-04-09T11:53:17;10.32;;;9.32;;
24891;SDS011;12954;50.688;10.908;2023-04-09T11:55:48;9.75;;;8.75;;
24891;SDS011;12954;50.688;10.908;2023-04-09T11:58:20;15.27;;;13.23;;
24891;SDS011;12954;50.688;10.908;2023-04-09T12:00:51;11.70;;;10.60;;
24891;SDS011;12954;50.688;10.908;2023-04-09T12:03:26;9.43;;;8.57;;
24891;SDS011;12954;50.688;10.908;2023-04-09T12:05:58;9.70;;;8.70;;
24891;SDS011;12954;50.688;10.908;2023-04-09T12:08:29;9.65;;;8.65;;
24891;SDS011;12954;50.688;10.908;2023-04-09T12:11:06;8.82;;;7.93;;
24891;SDS011;12954;50.688;10.908;2023-04-09T12:13:35;9.98;;;8.32;;
24891;SDS011;12954;50.688;10.908;2023-04-09T12:16:08;8.80;;;7.90;;
24891;SDS011;12954;50.688;10.908;2023-04-09T12:18:38;9.30;;;8.40;;
24891;SDS011;12954;50.688;10.908;2023-04-09T12:21:06;8.27;;;7.47;;
24891;SDS011;12954;50.688;10.908;2023-04-09T12:23:36;8.93;;;8.02;;
24891;SDS011;12954;50.688;10.908;2023-04-09T12:26:04;8.43;;;7.63;;
24891;SDS011;12954;50.688;10.908;2023-04-09T12:28:33;9.52;;;7.47;;
24891;SDS011;12954;50.688;10.908;2023-04-09T12:31:01;7.22;;;6.53;;
24891;SDS011;12954;50.688;10.908;2023-04-09T12:33:30;8.13;;;7.22;;
24891;SDS011;12954;50.688;10.908;2023-04-09T12:35:59;7.40;;;6.70;;
24891;SDS011;12954;50.688;10.908;2023-04-09T12:38:28;7.90;;;7.15;;
24891;SDS011;12954;50.688;10.908;2023-04-09T12:40:58;8.15;;;6.90;;
24891;SDS011;12954;50.688;10.908;2023-04-09T12:43:26;7.55;;;6.85;;
24891;SDS011;12954;50.688;10.908;2023-04-09T12:45:55;7.60;;;6.80;;
24891;SDS011;12954;50.688;10.908;2023-04-09T12:48:23;7.03;;;6.03;;
24891;SDS011;12954;50.688;10.908;2023-04-09T12:50:52;7.50;;;6.80;;
24891;SDS011;12954;50.688;10.908;2023-04-09T12:53:20;6.88;;;6.22;;
24891;SDS011;12954;50.688;10.908;2023-04-09T12:55:49;7.13;;;6.43;;
24891;SDS011;12954;50.688;10.908;2023-04-09T12:58:19;6.53;;;5.93;;
24891;SDS011;12954;50.688;10.908;2023-04-09T13:00:47;6.90;;;6.18;;
24891;SDS011;12954;50.688;10.908;2023-04-09T13:03:16;7.43;;;6.72;;
24891;SDS011;12954;50.688;10.908;2023-04-09T13:05:44;6.78;;;6.18;;
24891;SDS011;12954;50.688;10.908;2023-04-09T13:08:13;10.30;;;6.40;;
24891;SDS011;12954;50.688;10.908;2023-04-09T13:10:41;6.65;;;6.05;;
24891;SDS011;12954;50.688;10.908;2023-04-09T13:13:10;6.90;;;6.22;;
24891;SDS011;12954;50.688;10.908;2023-04-09T13:15:40;7.18;;;6.47;;
24891;SDS011;12954;50.688;10.908;2023-04-09T13:18:11;6.63;;;5.93;;
24891;SDS011;12954;50.688;10.908;2023-04-09T13:20:39;6.28;;;5.68;;
24891;SDS011;12954;50.688;10.908;2023-04-09T13:23:08;6.28;;;5.50;;
24891;SDS011;12954;50.688;10.908;2023-04-09T13:25:36;6.32;;;5.72;;
24891;SDS011;12954;50.688;10.908;2023-04-09T13:28:04;6.88;;;6.18;;
24891;SDS011;12954;50.688;10.908;2023-04-09T13:30:33;5.95;;;5.45;;
24891;SDS011;12954;50.688;10.908;2023-04-09T13:33:03;6.60;;;6.00;;
24891;SDS011;12954;50.688;10.908;2023-04-09T13:35:32;6.25;;;5.65;;
24891;SDS011;12954;50.688;10.908;2023-04-09T13:38:00;6.28;;;5.68;;
24891;SDS011;12954;50.688;10.908;2023-04-09T13:40:29;5.95;;;5.13;;
24891;SDS011;12954;50.688;10.908;2023-04-09T13:42:57;6.10;;;5.50;;
24891;SDS011;12954;50.688;10.908;2023-04-09T13:45:26;5.82;;;5.30;;
24891;SDS011;12954;50.688;10.908;2023-04-09T13:47:54;6.05;;;5.43;;
24891;SDS011;12954;50.688;10.908;2023-04-09T13:50:24;6.07;;;5.47;;
24891;SDS011;12954;50.688;10.908;2023-04-09T13:52:53;6.22;;;5.63;;
24891;SDS011;12954;50.688;10.908;2023-04-09T13:55:22;5.93;;;5.32;;
24891;SDS011;12954;50.688;10.908;2023-04-09T13:57:51;6.32;;;5.72;;
24891;SDS011;12954;50.688;10.908;2023-04-09T14:00:19;7.00;;;6.30;;
24891;SDS011;12954;50.688;10.908;2023-04-09T14:02:48;6.45;;;5.85;;
24891;SDS011;12954;50.688;10.908;2023-04-09T14:05:16;6.78;;;6.07;;
24891;SDS011;12954;50.688;10.908;2023-04-09T14:07:46;6.25;;;5.65;;
24891;SDS011;12954;50.688;10.908;2023-04-09T14:10:15;6.75;;;5.80;;
24891;SDS011;12954;50.688;10.908;2023-04-09T14:12:43;5.78;;;5.25;;
24891;SDS011;12954;50.688;10.908;2023-04-09T14:15:12;5.88;;;5.28;;
24891;SDS011;12954;50.688;10.908;2023-04-09T14:17:41;6.75;;;6.05;;
24891;SDS011;12954;50.688;10.908;2023-04-09T14:20:10;5.85;;;5.25;;
24891;SDS011;12954;50.688;10.908;2023-04-09T14:22:38;6.30;;;5.70;;
24891;SDS011;12954;50.688;10.908;2023-04-09T14:25:10;6.07;;;5.53;;
24891;SDS011;12954;50.688;10.908;2023-04-09T14:27:39;5.68;;;5.18;;
24891;SDS011;12954;50.688;10.908;2023-04-09T14:30:08;5.63;;;5.05;;
24891;SDS011;12954;50.688;10.908;2023-04-09T14:32:37;55.30;;;44.88;;